Richland Center, WI (53581)

2:08 AM CDT on July 24, 2017 (GMT -0500)
Ash Creek | | Change Station
Active Advisory: Flood Warning

Elev 732 ft 43.33 °N, 90.39 °W | Updated 10 minutes ago

Partly Cloudy
Partly Cloudy
61.4 °F
Feels Like 61.4 °F
N
0.0
Wind Variable Wind from ENE
Gusts 0.0 mph

Today
High -- | Low -- °F
--% Chance of Precip.
Yesterday
High -- | Low -- °F
Precip. -- in
Pressure 29.95 in
Visibility 10.0 miles
Clouds Overcast 4100 ft
Dew Point 59 °F
Humidity 92%
Rainfall 0.00 in
Snow Depth Not available.
5:43 AM 8:31 PM
New Moon, 1% visible
METAR KLNR 240656Z AUTO 06004KT 10SM OVC041 18/14 A2997 RMK AO2 SLP141 T01830144
Pressure 29.95 in
Visibility 10.0 miles
Clouds Overcast 4100 ft
Dew Point 59 °F
Humidity 92%
Rainfall 0.00 in
Snow Depth Not available.
5:43 AM 8:31 PM
New Moon, 1% visible
METAR KLNR 240656Z AUTO 06004KT 10SM OVC041 18/14 A2997 RMK AO2 SLP141 T01830144

Get Your Daily Forecast Email!

Thanks for signing up!

Be on the lookout for a verification email in your inbox.

You'll start receiving severe weather alerts in your inbox..

×

10-Day Weather Forecast

Almanac

Astronomy

Jul. 24, 2017 Rise Set
Actual Time
Civil Twilight
Nautical Twilight
Astronomical Twilight
Moon
Length of Visible Light
Length of Day
Tomorrow will be .
, % of the Moon is Illuminated

Today's Extremes

State Highs State Lows

Community

WunderPhotos

Category 6

Welcome to Category 6. This is the collective home for Weather Underground's featured writeups by Dr. Jeff Masters (right), Bob Henson (left), Chris Burt, and other regular contributors.

Nearby

Air Quality

  Air Quality AQ Index Pollutant
Not available.

Snow Depth

Station Depth Elevation

Earthquake Activity

City Distance Mag. Time & Date
Minimum magnitude displayed is 2.5.

Coastal Water Temperatures

Place Temperature

Stations

Nearby Weather Stations

Station Location Temp. Windchill Dew Point Humidity Wind Precip. Elev Updated Type
                   

Watches & Warnings

Flood Warning
Issued: 8:29 PM CDT Jul. 23, 2017 – National Weather Service

The Flood Warning continues for
the Kickapoo river at Viola.
* Until Tuesday morning... or until the warning is cancelled.
* At 1:30 PM Sunday the stage was 15.6 feet.
* Flood stage is 14.0 feet.
* Minor flooding is occurring and minor flooding is forecast.
* Forecast... the river will continue to fall... dropping below flood
stage by Monday morning.
* Impact... at 15.0 feet... banker park and campground in Viola
experiences significant flooding.


Lat... Lon 4353 9064 4347 9066 4346 9072 4348 9073 4354 9070